Calumet — WDE3568 — position and weather

sailwx.info

Track history (hours):
 
Tides and Currents Weather Stations Pressure Air Temp Water Temp Dewpoint Dewpoint Depression Visibility Wind Speed Wind Dir Waves Ship Positions

Calumet

Owner: Grand River Navigation Company, Traverse City, MI. More information available from US FCC via Universal Licensing System and Coast Guard Vessel Documentation Center.

Last reported at 2015-May-29 17:00 UTC. Time now 2015-May-29 22:21 UTC.
Position N 45°24' W 083°24'.

Length 192 m; draft 6.4 m.

Type: Cargo ship. MMSI: 367132630.

Date/timePositionNaut miles runAvg speedWind from/ knotsBaromVisibWave heightAir tempDewpointWater temp
2015-May-29 17:00N 45°24' W 083°24'4011.7
2015-May-29 13:33N 45°41' W 084°16'1211.6
2015-May-29 12:33N 45°44' W 084°32'1211.9
2015-May-29 11:33N 45°49' W 084°47'1212.0
2015-May-29 10:33N 45°50' W 085°04'1110.6
2015-May-29 09:33N 45°41' W 085°14'1312.6
2015-May-29 08:33N 45°31' W 085°24'1212.5
2015-May-29 07:33N 45°21' W 085°35'1312.5
2015-May-29 06:33N 45°11' W 085°45'1312.6
2015-May-29 05:33N 45°01' W 085°56'712.4
2015-May-29 05:00N 45°00' W 086°06'715.0 160 / 121023.3 18.3
2015-May-29 04:33N 44°55' W 086°12'814.5
2015-May-29 04:00N 44°48' W 086°18'510.3 150 / 121023.0 16.1
2015-May-29 03:33N 44°44' W 086°20'  
2015-May-26 07:15N 45°00' W 085°58'811.7
2015-May-26 06:33N 45°07' W 085°52'1212.0
2015-May-26 05:33N 45°16' W 085°42'915.2
2015-May-26 05:00N 45°24' W 085°36'4 8.4 210 / 251012.8 11.6 3.3
2015-May-26 04:33N 45°26' W 085°32'1212.0
2015-May-26 03:33N 45°36' W 085°22'1211.8
2015-May-26 02:33N 45°45' W 085°11'9 8.9
2015-May-26 01:33N 45°51' W 085°01'1211.7
2015-May-26 00:33N 45°49' W 084°44'1211.9
2015-May-25 23:33N 45°43' W 084°30'1211.5
2015-May-25 22:31N 45°41' W 084°13'  
2015-May-22 07:33N 45°51' W 083°47'9 9.0
2015-May-22 06:33N 45°59' W 083°53'0 0.0
2015-May-22 04:24N 45°59' W 083°53'0 0.1
2015-May-22 03:30N 45°59' W 083°53'0 0.0
2015-May-22 02:33N 45°59' W 083°53'0 0.0
2015-May-22 01:33N 45°59' W 083°53'2 0.8
2015-May-21 22:33N 45°57' W 083°53'22 0.7
2015-May-20 14:22N 45°39' W 084°12'1011.8
2015-May-20 13:33N 45°42' W 084°25'1212.3
2015-May-20 12:33N 45°48' W 084°41'1212.0
2015-May-20 11:33N 45°49' W 084°58'9 8.9
2015-May-20 10:33N 45°46' W 085°09'1212.4
2015-May-20 09:33N 45°36' W 085°20'1312.5
2015-May-20 08:33N 45°26' W 085°30'1312.5
2015-May-20 07:33N 45°16' W 085°41'1312.5
2015-May-20 06:33N 45°05' W 085°51'1212.1
2015-May-20 05:33N 44°58' W 086°05'1612.0
2015-May-20 04:15N 44°46' W 086°20'  
Track history (hours):
 
Tides and Currents Weather Stations Pressure Air Temp Water Temp Dewpoint Dewpoint Depression Visibility Wind Speed Wind Dir Waves Ship Positions

Calumet

Owner: Grand River Navigation Company, Traverse City, MI. More information available from US FCC via Universal Licensing System and Coast Guard Vessel Documentation Center.

Last reported at 2015-May-29 17:00 UTC. Time now 2015-May-29 22:21 UTC.
Position N 45°24' W 083°24'.

Length 192 m; draft 6.4 m.

Type: Cargo ship. MMSI: 367132630.

Date/timePositionNaut miles runAvg speedWind from/ knotsBaromVisibWave heightAir tempDewpointWater temp
2015-May-29 17:00N 45°24' W 083°24'4011.7
2015-May-29 13:33N 45°41' W 084°16'1211.6
2015-May-29 12:33N 45°44' W 084°32'1211.9
2015-May-29 11:33N 45°49' W 084°47'1212.0
2015-May-29 10:33N 45°50' W 085°04'1110.6
2015-May-29 09:33N 45°41' W 085°14'1312.6
2015-May-29 08:33N 45°31' W 085°24'1212.5
2015-May-29 07:33N 45°21' W 085°35'1312.5
2015-May-29 06:33N 45°11' W 085°45'1312.6
2015-May-29 05:33N 45°01' W 085°56'712.4
2015-May-29 05:00N 45°00' W 086°06'715.0 160 / 121023.3 18.3
2015-May-29 04:33N 44°55' W 086°12'814.5
2015-May-29 04:00N 44°48' W 086°18'510.3 150 / 121023.0 16.1
2015-May-29 03:33N 44°44' W 086°20'  
2015-May-26 07:15N 45°00' W 085°58'811.7
2015-May-26 06:33N 45°07' W 085°52'1212.0
2015-May-26 05:33N 45°16' W 085°42'915.2
2015-May-26 05:00N 45°24' W 085°36'4 8.4 210 / 251012.8 11.6 3.3
2015-May-26 04:33N 45°26' W 085°32'1212.0
2015-May-26 03:33N 45°36' W 085°22'1211.8
2015-May-26 02:33N 45°45' W 085°11'9 8.9
2015-May-26 01:33N 45°51' W 085°01'1211.7
2015-May-26 00:33N 45°49' W 084°44'1211.9
2015-May-25 23:33N 45°43' W 084°30'1211.5
2015-May-25 22:31N 45°41' W 084°13'  
2015-May-22 07:33N 45°51' W 083°47'9 9.0
2015-May-22 06:33N 45°59' W 083°53'0 0.0
2015-May-22 04:24N 45°59' W 083°53'0 0.1
2015-May-22 03:30N 45°59' W 083°53'0 0.0
2015-May-22 02:33N 45°59' W 083°53'0 0.0
2015-May-22 01:33N 45°59' W 083°53'2 0.8
2015-May-21 22:33N 45°57' W 083°53'22 0.7
2015-May-20 14:22N 45°39' W 084°12'1011.8
2015-May-20 13:33N 45°42' W 084°25'1212.3
2015-May-20 12:33N 45°48' W 084°41'1212.0
2015-May-20 11:33N 45°49' W 084°58'9 8.9
2015-May-20 10:33N 45°46' W 085°09'1212.4
2015-May-20 09:33N 45°36' W 085°20'1312.5
2015-May-20 08:33N 45°26' W 085°30'1312.5
2015-May-20 07:33N 45°16' W 085°41'1312.5
2015-May-20 06:33N 45°05' W 085°51'1212.1
2015-May-20 05:33N 44°58' W 086°05'1612.0
2015-May-20 04:15N 44°46' W 086°20'  

Dump ship's entire track history